Weather observations for the past three days for
Ada, Ada Municipal Airport
Metric (Imperial)
Date Time (cdt) Wind (kph) Vis. (km) Weather Sky Cond. Temperature (ºC) Relative Humidity Wind Chill (°C) Heat Index (°C) Pressure Precipitation (cm)
Air Dwpt 6 hour altimeter (cm) sea level (mb) 1 hr 3 hr 6 hr
Max. Min.
31 08:35 SE 9 16.09 Fair CLR 27 21 70% 29 76.33 0.0
31 08:15 SE 9 16.09 Fair CLR 26 21 74% 27 76.3 0.0
31 07:55 SE 11 16.09 Fair CLR 24 21 83% 24 76.3 0.0
31 07:35 SE 7 16.09 Fair CLR 23 21 89% 76.25 0.0
31 07:15 SE 7 16.09 Fair CLR 23 21 89% 76.25 0.0
31 06:55 E 7 16.09 Fair CLR 23 21 27.7 22.5 89% 76.23 0.0
31 06:35 SE 7 16.09 Fair CLR 23 21 89% 76.2 0.0
31 06:15 SE 9 16.09 Fair CLR 23 20 83% 76.2 0.0
31 05:55 SE 6 16.09 Fair CLR 23 20 83% 76.17 0.0
31 05:36 SE 7 16.09 Fair CLR 23 20 83% 76.17 0.0
31 05:15 SE 6 16.09 Fair CLR 24 20 78% 24 76.17 0.0
31 04:55 SE 9 16.09 Fair CLR 24 20 78% 24 76.15 0.0
31 04:35 SE 9 16.09 Fair CLR 25 20 74% 26 76.15 0.0
31 04:15 SE 9 16.09 Fair CLR 25 20 74% 26 76.12 0.0
31 03:56 SE 13 16.09 Fair CLR 25 20 74% 26 76.12 0.0
31 03:35 SE 9 16.09 Fair CLR 25 19 69% 26 76.12 0.0
31 03:15 SE 11 16.09 Fair CLR 25 19 69% 26 76.12 0.0
31 02:55 SE 11 16.09 Fair CLR 26 19 65% 27 76.12 0.0
31 02:35 SE 15 16.09 Fair CLR 27 19 62% 28 76.15 0.0
31 02:10 SE 13 16.09 Fair CLR 26 19 65% 27 76.15 0.0
31 01:55 SE 11 16.09 Fair CLR 26 19 65% 27 76.15 0.0
31 01:35 SE 13 16.09 Fair CLR 27 18 58% 28 76.15 0.0
31 01:15 S 7 16.09 Fair CLR 27 18 58% 28 76.12 0.0
31 00:55 S 7 16.09 Fair CLR 28 18 37.4 27.5 55% 29 76.12 0.0
31 00:35 S 7 16.09 Fair CLR 28 18 55% 29 76.12 0.0
31 00:15 S 9 16.09 Fair CLR 29 18 51% 30 76.1 0.0
30 23:55 S 9 16.09 Fair CLR 30 18 49% 31 76.1 0.0
30 23:35 S 9 16.09 Fair CLR 29 18 51% 30 76.1 0.0
30 23:15 S 7 16.09 Fair CLR 29 19 55% 30 76.1 0.0
30 22:55 S 7 16.09 Fair CLR 29 19 55% 30 76.1 0.0
30 22:35 S 7 16.09 Fair CLR 29 19 55% 30 76.07 0.0
30 22:15 S 9 16.09 Fair CLR 30 19 52% 31 76.07 0.0
30 21:55 S 7 16.09 Fair CLR 30 19 52% 31 76.07 0.0
30 21:35 S 9 16.09 Fair CLR 31 19 49% 32 76.05 0.0
30 21:15 S 9 16.09 Fair CLR 31 19 49% 32 76.02 0.0
30 20:56 S 9 16.09 Fair CLR 32 19 46% 33 76.02 0.0
30 20:35 S 13 16.09 Fair CLR 33 18 41% 34 76 0.0
30 20:15 S 9 16.09 Fair CLR 33 18 41% 34 76 0.0
30 19:55 S 11 16.09 Fair CLR 34 18 39% 35 76 0.0
30 19:35 S 13 16.09 Fair CLR 36 19 37% 38 75.97 0.0
30 19:15 S 15 16.09 Fair CLR 37 19 35% 39 75.97 0.0
30 18:55 SE 22 G 28 16.09 Fair CLR 37 19 40.1 36.5 35% 39 76 0.0
30 18:35 S 19 16.09 Fair CLR 38 19 33% 40 76 0.0
30 18:15 S 15 G 31 16.09 A Few Clouds FEW095 38 19 33% 40 76 0.0
30 17:55 SE 20 G 28 16.09 A Few Clouds FEW095 39 20 33% 42 76 0.0
30 17:35 S 15 16.09 Fair CLR 37 19 35% 39 75.97 0.0
30 17:15 S 11 G 30 16.09 A Few Clouds FEW095 38 20 35% 41 75.97 0.0
30 16:55 S 13 G 30 16.09 Partly Cloudy SCT095 39 20 33% 42 76 0.0
30 16:35 S 13 G 28 16.09 Mostly Cloudy BKN085 40 20 31% 44 76 0.0
30 16:15 S 24 G 33 16.09 Partly Cloudy SCT085 40 20 31% 44 76 0.0
30 15:55 S 22 G 31 16.09 Partly Cloudy SCT085 39 20 33% 42 76.02 0.0
30 15:35 S 22 16.09 Partly Cloudy SCT085 39 20 33% 42 76.05 0.0
30 15:15 S 13 16.09 Partly Cloudy SCT085 39 20 33% 42 76.07 0.0
30 14:55 S 19 16.09 A Few Clouds FEW085 39 20 33% 42 76.07 0.0
30 14:35 SW 15 16.09 A Few Clouds FEW085 39 19 31% 42 76.1 0.0
30 14:15 S 15 G 31 16.09 Fair CLR 39 19 31% 42 76.12 0.0
30 13:55 SW 15 G 28 16.09 A Few Clouds FEW080 39 20 33% 42 76.12 0.0
30 13:35 SE 19 G 33 16.09 Partly Cloudy SCT080 38 20 35% 41 76.15 0.0
30 13:15 SW 22 G 33 16.09 A Few Clouds FEW080 38 20 35% 41 76.17 0.0
30 12:55 SW 19 G 33 16.09 Fair CLR 38 21 37.8 23.9 37% 42 76.17 0.0
30 12:35 SW 26 G 39 16.09 Fair CLR 37 20 37% 40 76.2 0.0
30 12:15 S 24 G 37 16.09 Fair CLR 37 21 39% 41 76.23 0.0
30 11:55 S 24 G 33 16.09 Fair CLR 37 21 39% 41 76.25 0.0
30 11:35 SW 15 G 30 16.09 Fair CLR 36 22 44% 41 76.25 0.0
30 11:15 S 20 G 28 16.09 Fair CLR 35 22 47% 39 76.25 0.0
30 10:55 S 11 16.09 Fair CLR 34 22 50% 38 76.28 0.0
30 10:35 SE 13 16.09 Fair CLR 32 22 55% 36 76.28 0.0
30 10:15 SE 15 16.09 Fair CLR 31 21 55% 34 76.28 0.0
30 09:55 SE 17 16.09 Fair CLR 30 21 59% 33 76.28 0.0
30 09:35 S 15 16.09 Fair CLR 28 21 66% 30 76.28 0.0
30 09:15 SE 15 16.09 Fair CLR 28 21 66% 30 76.3 0.0
30 08:55 SE 17 16.09 Fair CLR 27 20 66% 29 76.3 0.0
30 08:35 SE 17 16.09 Fair CLR 26 20 70% 27 76.3 0.0
30 08:15 SE 19 16.09 Fair CLR 26 20 70% 27 76.28 0.0
30 07:55 SE 17 16.09 Fair CLR 25 20 74% 26 76.28 0.0
30 07:35 SE 15 16.09 Fair CLR 24 20 78% 24 76.28 0.0
30 07:15 SE 15 16.09 Fair CLR 24 20 78% 24 76.25 0.0
30 06:55 SE 19 16.09 Fair CLR 24 20 28.7 24.1 78% 24 76.23 0.0
30 06:35 SE 15 16.09 Fair CLR 24 20 78% 24 76.23 0.0
30 06:15 SE 17 16.09 Fair CLR 25 20 74% 26 76.2 0.0
30 05:55 SE 17 16.09 Fair CLR 25 20 74% 26 76.2 0.0
30 05:35 SE 15 16.09 Fair CLR 25 20 74% 26 76.2 0.0
30 05:15 SE 15 16.09 Fair CLR 25 20 74% 26 76.17 0.0
30 04:55 SE 19 16.09 Fair CLR 25 20 74% 26 76.2 0.0
30 04:35 SE 20 16.09 Fair CLR 25 19 69% 26 76.2 0.0
30 04:15 SE 19 16.09 Fair CLR 26 19 65% 27 76.17 0.0
30 03:55 SE 19 G 31 16.09 Fair CLR 26 19 65% 27 76.17 0.0
30 03:35 SE 17 16.09 Fair CLR 27 19 62% 28 76.17 0.0
30 03:15 SE 19 16.09 Fair CLR 27 19 62% 28 76.17 0.0
30 02:55 SE 20 16.09 Fair CLR 27 19 62% 28 76.17 0.0
30 02:35 SE 20 16.09 Fair CLR 28 19 58% 29 76.17 0.0
30 02:15 SE 19 16.09 Fair CLR 28 19 58% 29 76.17 0.0
30 01:55 SE 17 16.09 Fair CLR 28 19 58% 29 76.2 0.0
30 01:35 SE 19 16.09 Fair CLR 28 19 58% 29 76.17 0.0
30 01:15 SE 19 16.09 Fair CLR 28 19 58% 29 76.17 0.0
30 00:56 SE 19 16.09 Fair CLR 29 19 55% 30 76.17 0.0
30 00:35 SE 20 G 28 16.09 Fair CLR 29 18 51% 30 76.17 0.0
30 00:15 SE 20 G 31 16.09 Fair CLR 30 18 49% 31 76.17 0.0
29 23:55 SE 22 G 31 16.09 Fair CLR 30 18 49% 31 76.17 0.0
29 23:35 SE 19 16.09 Fair CLR 30 18 49% 31 76.17 0.0
29 23:15 SE 15 16.09 Fair CLR 29 18 51% 30 76.17 0.0
29 22:55 SE 13 16.09 Fair CLR 30 18 49% 31 76.15 0.0
29 22:35 SE 13 16.09 Fair CLR 31 19 49% 32 76.17 0.0
29 22:15 SE 15 16.09 Fair CLR 31 19 49% 32 76.15 0.0
29 21:55 SE 17 16.09 Fair CLR 32 18 43% 33 76.15 0.0
29 21:35 SE 15 16.09 Fair CLR 32 18 43% 33 76.12 0.0
29 21:15 SE 15 16.09 Fair CLR 32 18 43% 33 76.1 0.0
29 20:55 SE 15 16.09 Fair CLR 32 19 46% 33 76.07 0.0
29 20:35 SE 13 16.09 Fair CLR 33 19 44% 35 76.07 0.0
29 20:15 SE 15 16.09 Fair CLR 34 19 41% 36 76.05 0.0
29 19:55 SE 13 16.09 Fair CLR 35 19 39% 37 76.05 0.0
29 19:35 SE 17 16.09 Fair CLR 36 19 37% 38 76.05 0.0
29 19:15 SE 19 G 26 16.09 Fair CLR 37 19 35% 39 76.05 0.0
29 18:55 S 15 16.09 Fair CLR 38 18 39.7 36.2 31% 40 76.05 0.0
29 18:35 SE 19 16.09 Fair CLR 38 19 33% 40 76.05 0.0
29 18:15 S 17 16.09 Fair CLR 39 18 29% 41 76.05 0.0
29 17:55 S 13 16.09 Fair CLR 39 18 29% 41 76.05 0.0
29 17:35 SE 15 G 28 16.09 Partly Cloudy SCT100 39 19 31% 42 76.07 0.0
29 17:15 SE 24 16.09 Partly Cloudy SCT100 39 19 31% 42 76.07 0.0
29 16:55 S 13 G 26 16.09 Partly Cloudy SCT110 38 19 33% 40 76.07 0.0
29 16:35 S 13 16.09 Partly Cloudy SCT110 37 19 35% 39 76.1 0.0
29 16:15 SE 11 G 26 16.09 Fair CLR 38 19 33% 40 76.12 0.0
29 15:55 SE 17 G 31 16.09 Fair CLR 39 20 33% 42 76.15 0.0
29 15:35 S 13 G 26 16.09 A Few Clouds FEW085 39 19 31% 42 76.17 0.0
29 15:15 S 13 16.09 Partly Cloudy SCT085 39 20 33% 42 76.17 0.0
29 14:55 Vrbl 11 16.09 A Few Clouds FEW085 38 19 33% 40 76.2 0.0
29 14:35 SW 17 G 26 16.09 A Few Clouds FEW085 37 20 37% 40 76.23 0.0
29 14:15 S 11 16.09 Fair CLR 38 21 37% 42 76.25 0.0
29 13:55 SE 9 16.09 A Few Clouds FEW075 38 21 37% 42 76.25 0.0
29 13:35 Calm 16.09 Fair CLR 37 21 39% 41 76.28 0.0
29 13:15 S 19 G 28 16.09 Fair CLR 37 21 39% 41 76.3 0.0
29 12:55 SW 19 16.09 Fair CLR 37 21 37.6 22.8 39% 41 76.33 0.0
29 12:35 S 15 G 26 16.09 Fair CLR 36 22 44% 41 76.33 0.0
29 12:15 SE 15 16.09 Fair CLR 35 23 50% 41 76.35 0.0
29 11:55 Vrbl 11 16.09 Fair CLR 34 23 53% 39 76.38 0.0
29 11:35 SE 15 16.09 Fair CLR 33 23 56% 38 76.4 0.0
29 11:15 Vrbl 11 16.09 Fair CLR 32 23 59% 37 76.4 0.0
29 10:55 S 13 16.09 Fair CLR 32 23 59% 37 76.4 0.0
29 10:35 SE 19 16.09 Fair CLR 30 23 66% 34 76.4 0.0
29 09:55 S 17 16.09 Fair CLR 28 22 70% 31 76.4 0.0
29 09:35 SE 19 G 31 16.09 Fair CLR 28 22 70% 31 76.43 0.0
29 09:15 SE 20 G 30 16.09 Fair CLR 27 22 74% 29 76.43 0.0
29 08:55 SE 17 G 30 16.09 Fair CLR 26 22 79% 28 76.43 0.0
29 08:35 SE 20 G 30 16.09 Fair CLR 25 22 83% 26 76.43 0.0
29 08:15 SE 20 G 28 16.09 Fair CLR 25 21 79% 26 76.43 0.0
29 07:55 SE 19 16.09 Fair CLR 24 21 83% 24 76.43 0.0
29 07:35 SE 15 16.09 Fair CLR 24 21 83% 24 76.43 0.0
29 07:15 SE 15 16.09 Fair CLR 23 21 89% 76.4 0.0
29 06:55 SE 17 16.09 Fair CLR 23 21 27.2 23 89% 76.4 0.0
29 06:35 SE 13 16.09 Fair CLR 23 20 83% 76.38 0.0
29 06:15 SE 15 G 26 16.09 Fair CLR 24 20 78% 24 76.38 0.0
29 05:55 SE 19 16.09 Fair CLR 24 20 78% 24 76.38 0.0
29 05:35 SE 19 16.09 Fair CLR 24 20 78% 24 76.38 0.0
29 05:15 SE 19 16.09 Fair CLR 24 19 74% 25 76.38 0.0
29 04:55 SE 19 16.09 Fair CLR 25 19 69% 26 76.38 0.0
29 04:35 SE 17 16.09 Fair CLR 25 18 65% 26 76.35 0.0
29 04:15 S 15 16.09 Fair CLR 24 17 65% 25 76.35 0.0
29 03:55 SE 17 16.09 Fair CLR 25 17 61% 26 76.35 0.0
29 03:35 SE 17 16.09 Fair CLR 25 16 57% 26 76.35 0.0
29 03:15 SE 13 16.09 Fair CLR 25 15 54% 26 76.35 0.0
29 02:55 SE 17 16.09 Fair CLR 26 16 54% 27 76.35 0.0
29 02:35 SE 15 16.09 Fair CLR 26 15 51% 27 76.35 0.0
29 02:15 SE 13 16.09 Fair CLR 26 15 51% 27 76.35 0.0
29 01:55 SE 15 16.09 Fair CLR 27 15 48% 27 76.35 0.0
29 01:35 SE 11 16.09 Fair CLR 26 15 51% 27 76.35 0.0
29 01:15 E 9 16.09 Fair CLR 26 14 48% 26 76.35 0.0
29 00:55 E 7 16.09 Fair CLR 25 14 36.8 24.8 51% 26 76.35 0.0
29 00:35 E 9 16.09 Fair CLR 25 15 54% 26 76.35 0.0
29 00:15 E 9 16.09 Fair CLR 26 15 51% 27 76.35 0.0
28 23:55 E 9 16.09 Fair CLR 26 14 48% 26 76.33 0.0
28 23:35 E 9 16.09 Fair CLR 26 14 48% 26 76.33 0.0
28 23:15 E 9 16.09 Fair CLR 27 14 45% 27 76.35 0.0
28 22:55 E 6 16.09 Fair CLR 27 14 45% 27 76.35 0.0
28 22:35 E 7 16.09 Fair CLR 28 14 42% 28 76.35 0.0
28 22:15 E 9 16.09 Fair CLR 28 13 40% 28 76.33 0.0
28 21:55 E 9 16.09 Fair CLR 28 13 40% 28 76.3 0.0
28 21:35 E 9 16.09 Fair CLR 29 13 37% 28 76.3 0.0
28 21:15 E 9 16.09 Fair CLR 30 13 35% 29 76.28 0.0
28 20:55 E 9 16.09 Fair CLR 31 13 33% 30 76.25 0.0
28 20:35 NE 11 16.09 Fair CLR 31 14 35% 30 76.23 0.0
28 20:15 NE 11 16.09 Fair CLR 32 14 33% 31 76.23 0.0
28 19:55 E 11 16.09 Fair CLR 33 15 34% 33 76.2 0.0
28 19:35 NE 11 16.09 Fair CLR 34 16 34% 34 76.2 0.0
28 19:15 NE 13 16.09 Fair CLR 36 16 30% 36 76.2 0.0
28 18:55 E 11 16.09 Fair CLR 37 15 39.7 35.4 27% 37 76.2 0.0
28 18:35 NE 20 0.00 NULL NULL 0 0 0% 76.2 0.0
28 18:15 NE 13 16.09 Fair CLR 38 15 25% 38 76.17 0.0
28 17:55 E 15 16.09 Fair CLR 39 15 24% 39 76.17 0.0
28 17:35 E 13 16.09 Fair CLR 39 14 23% 39 76.2 0.0
28 17:15 NE 20 16.09 Fair CLR 39 15 24% 39 76.2 0.0
28 16:55 NE 11 16.09 Fair CLR 40 14 21% 40 76.23 0.0
28 16:35 E 15 16.09 Fair CLR 39 15 24% 39 76.23 0.0
28 16:15 NE 7 16.09 Fair CLR 38 14 24% 38 76.25 0.0
28 15:55 E 9 16.09 Fair CLR 38 14 24% 38 76.28 0.0
28 15:35 Vrbl 6 16.09 Fair CLR 39 14 23% 39 76.3 0.0
28 15:15 E 13 G 33 16.09 Fair CLR 39 14 23% 39 76.3 0.0
28 14:55 Vrbl 7 16.09 Fair CLR 38 15 25% 38 76.33 0.0
28 14:35 E 15 G 33 16.09 Fair CLR 39 15 24% 39 76.35 0.0
28 14:15 Vrbl 6 16.09 Fair CLR 38 16 27% 39 76.38 0.0
28 13:55 SE 20 G 28 16.09 Fair CLR 38 15 25% 38 76.38 0.0
28 13:35 SE 13 16.09 Fair CLR 38 14 24% 38 76.4 0.0
28 13:15 W 7 16.09 Fair CLR 36 17 32% 37 76.43 0.0
28 12:55 N 6 16.09 Fair CLR 36 19 36.7 20.4 37% 38 76.45 0.0
28 12:35 E 9 16.09 Fair CLR 36 19 37% 38 76.48 0.0
28 12:15 NE 13 16.09 Fair CLR 35 20 41% 38 76.48 0.0
28 11:55 Calm 16.09 Fair CLR 35 20 41% 38 76.5 0.0
28 11:35 Vrbl 9 16.09 Fair CLR 34 21 47% 37 76.5 0.0
28 11:15 Calm 16.09 Fair CLR 33 21 49% 36 76.5 0.0
28 10:55 Calm 16.09 Fair CLR 32 21 52% 35 76.5 0.0
28 10:35 Calm 16.09 Fair CLR 31 21 55% 34 76.5 0.0
28 10:15 Calm 16.09 Fair CLR 30 21 59% 33 76.5 0.0
28 09:55 NE 6 16.09 Fair CLR 30 21 59% 33 76.5 0.0
28 09:35 Calm 16.09 Fair CLR 29 22 66% 32 76.5 0.0
28 09:15 Calm 16.09 Fair CLR 27 22 74% 29 76.5 0.0
28 08:56 NE 7 16.09 Fair CLR 26 22 79% 28 76.5 0.0
Date Time (cdt) Wind (kph) Vis. (km) Weather Sky Cond. Air Dwpt Max. Min. Relative Humidity Wind Chill (°C) Heat Index (°C) altimeter (cm) sea level (mb) 1 hr 3 hr 6 hr
6 hour
Temperature (ºC) Pressure Precipitation (cm)